Time;durP1;ratioP1;P1;durP2;ratioP2;P2;SDS_P1;SDS_P2;PMS_P1;PMS_P2;Temp;Humidity;BMP_temperature;BMP_pressure;BME280_temperature;BME280_humidity;BME280_pressure;Samples;Min_cycle;Max_cycle;Signal;HPM_P1;HPM_P2
2022/12/02 00:01:12;;;;;;;57.72;18.23;;;1.30;98.40;;;;;;5021964;28;20108;-73
2022/12/02 00:03:37;;;;;;;73.55;20.35;;;1.30;98.40;;;;;;5032782;28;20434;-73
2022/12/02 00:06:03;;;;;;;60.95;20.00;;;1.30;98.50;;;;;;5028697;28;20116;-73
2022/12/02 00:08:30;;;;;;;58.20;18.75;;;1.40;98.50;;;;;;5021799;28;20221;-74
2022/12/02 00:11:00;;;;;;;74.18;21.08;;;1.40;98.50;;;;;;5022319;28;20304;-72
2022/12/02 00:13:27;;;;;;;54.55;18.00;;;1.40;98.50;;;;;;5017283;28;20467;-73
2022/12/02 00:15:58;;;;;;;65.32;17.98;;;1.40;98.50;;;;;;5036767;28;20113;-73
2022/12/02 00:18:23;;;;;;;54.28;17.95;;;1.30;98.30;;;;;;5029256;28;20044;-73
2022/12/02 00:20:49;;;;;;;58.58;17.88;;;1.30;98.50;;;;;;5026422;28;20036;-73
2022/12/02 00:23:15;;;;;;;57.50;17.50;;;1.30;98.50;;;;;;5024503;28;20081;-73
2022/12/02 00:25:52;;;;;;;52.05;17.48;;;1.20;98.40;;;;;;5027772;28;20350;-72
2022/12/02 00:28:19;;;;;;;57.60;16.73;;;1.20;98.50;;;;;;5029138;28;20430;-73
2022/12/02 00:30:44;;;;;;;49.90;16.02;;;1.20;98.50;;;;;;5018336;28;20029;-73
2022/12/02 00:33:10;;;;;;;56.63;16.35;;;1.10;98.40;;;;;;5029239;28;20037;-73
2022/12/02 00:35:36;;;;;;;56.47;16.73;;;1.10;98.40;;;;;;5023065;28;20052;-73
2022/12/02 00:38:03;;;;;;;56.85;15.50;;;1.10;98.40;;;;;;5026405;28;20033;-73
2022/12/02 00:40:28;;;;;;;46.28;15.25;;;1.20;98.30;;;;;;5025837;28;20068;-73
2022/12/02 00:46:30;;;;;;;44.25;14.70;;;1.10;98.10;;;;;;5024208;28;20410;-73
2022/12/02 00:48:23;;;;;;;54.72;15.82;;;1.10;98.20;;;;;;5024757;28;20040;-73
2022/12/02 00:50:49;;;;;;;53.63;16.05;;;1.20;98.20;;;;;;5030683;28;20473;-74
2022/12/02 00:53:14;;;;;;;62.83;18.45;;;1.20;98.10;;;;;;5020358;28;20552;-73
2022/12/02 00:55:40;;;;;;;46.95;14.65;;;1.20;98.10;;;;;;5023067;28;20517;-73
2022/12/02 00:58:05;;;;;;;46.63;16.48;;;1.20;98.10;;;;;;5022860;28;20044;-73
2022/12/02 01:00:31;;;;;;;51.03;15.88;;;1.20;98.00;;;;;;5025472;28;20030;-73
2022/12/02 01:02:56;;;;;;;53.85;16.33;;;1.20;98.00;;;;;;5030725;28;20025;-73
2022/12/02 01:05:22;;;;;;;50.63;16.80;;;1.20;98.00;;;;;;5026909;28;20113;-73
2022/12/02 01:07:47;;;;;;;49.08;16.48;;;1.20;98.00;;;;;;5025123;28;20108;-73
2022/12/02 01:10:13;;;;;;;46.00;15.88;;;1.20;97.90;;;;;;5028244;28;20038;-73
2022/12/02 01:12:38;;;;;;;53.75;16.83;;;1.30;98.00;;;;;;5022486;28;20037;-73
2022/12/02 01:15:04;;;;;;;48.78;16.42;;;1.20;97.80;;;;;;5025951;28;20053;-73
2022/12/02 01:17:30;;;;;;;60.75;18.00;;;1.10;97.80;;;;;;5027150;28;20029;-73
2022/12/02 01:19:55;;;;;;;60.40;17.55;;;1.20;97.80;;;;;;5027218;28;20128;-73
2022/12/02 01:22:21;;;;;;;58.05;18.23;;;1.10;97.80;;;;;;5024559;28;20088;-73
2022/12/02 01:24:46;;;;;;;66.13;18.80;;;1.10;97.90;;;;;;5025261;28;20056;-73
2022/12/02 01:27:11;;;;;;;72.00;18.63;;;1.00;98.00;;;;;;5013469;28;20104;-73
2022/12/02 01:29:37;;;;;;;76.13;20.60;;;1.00;98.10;;;;;;5022971;28;20108;-74
2022/12/02 01:32:03;;;;;;;65.70;19.13;;;1.00;98.10;;;;;;5021750;28;20474;-74
2022/12/02 01:34:28;;;;;;;66.10;21.13;;;1.00;98.20;;;;;;5019315;28;20029;-74
2022/12/02 01:36:53;;;;;;;63.22;20.27;;;1.00;98.20;;;;;;5022832;28;20065;-74
2022/12/02 01:39:19;;;;;;;66.40;19.02;;;0.90;98.20;;;;;;5026848;28;20022;-74
2022/12/02 01:41:44;;;;;;;61.20;18.70;;;0.80;98.20;;;;;;5021493;28;20034;-74
2022/12/02 01:44:10;;;;;;;55.20;19.48;;;0.70;98.00;;;;;;5018771;28;20319;-75
2022/12/02 01:46:37;;;;;;;50.42;18.63;;;0.80;98.10;;;;;;5027056;28;20026;-74
2022/12/02 01:49:02;;;;;;;64.20;19.52;;;0.70;98.00;;;;;;5034973;28;20440;-74
2022/12/02 01:51:28;;;;;;;60.20;18.73;;;0.70;97.90;;;;;;5037327;28;20041;-74
2022/12/02 01:53:53;;;;;;;49.80;18.95;;;0.70;97.80;;;;;;5031170;28;20354;-74
2022/12/02 01:56:19;;;;;;;54.53;20.20;;;0.70;97.70;;;;;;5029403;28;20208;-74
2022/12/02 01:58:44;;;;;;;48.65;19.13;;;0.60;97.50;;;;;;5021681;28;20441;-74
2022/12/02 02:01:31;;;;;;;54.53;19.42;;;0.60;97.40;;;;;;5018549;28;20052;-74
2022/12/02 02:03:57;;;;;;;56.50;19.35;;;0.60;97.40;;;;;;5024933;28;20398;-74
2022/12/02 02:06:24;;;;;;;53.40;18.30;;;0.60;97.30;;;;;;5018031;28;20448;-74
2022/12/02 02:08:50;;;;;;;55.97;19.33;;;0.60;97.30;;;;;;5021613;28;20038;-73
2022/12/02 02:11:16;;;;;;;54.72;20.35;;;0.60;97.20;;;;;;5024108;28;20026;-74
2022/12/02 02:13:42;;;;;;;50.75;19.52;;;0.60;97.00;;;;;;5018500;28;20048;-74
2022/12/02 02:16:07;;;;;;;70.70;20.30;;;0.60;97.10;;;;;;5025471;28;20323;-74
2022/12/02 02:18:34;;;;;;;55.80;21.25;;;0.70;97.20;;;;;;5021348;28;20112;-74
2022/12/02 02:20:59;;;;;;;57.67;20.33;;;0.60;96.80;;;;;;5037990;28;20045;-73
2022/12/02 02:23:26;;;;;;;54.50;20.58;;;0.60;96.80;;;;;;5026146;28;20053;-74
2022/12/02 02:25:55;;;;;;;50.28;18.20;;;0.60;96.80;;;;;;5028552;28;20103;-74
2022/12/02 02:28:23;;;;;;;46.28;18.05;;;0.60;96.60;;;;;;5028117;28;20024;-74
2022/12/02 02:30:51;;;;;;;47.88;18.23;;;0.60;96.60;;;;;;5025094;28;20034;-74
2022/12/02 02:33:17;;;;;;;48.53;18.33;;;0.60;96.70;;;;;;5027664;28;20124;-74
2022/12/02 02:35:45;;;;;;;47.90;18.45;;;0.50;96.30;;;;;;5016447;28;20354;-74
2022/12/02 02:38:14;;;;;;;50.75;19.85;;;0.60;96.50;;;;;;5025697;28;20049;-74
2022/12/02 02:40:40;;;;;;;53.38;20.55;;;0.50;96.20;;;;;;5030125;28;20025;-74
2022/12/02 02:43:06;;;;;;;61.00;20.83;;;0.50;96.30;;;;;;5025587;28;20116;-74
2022/12/02 02:45:35;;;;;;;62.30;22.23;;;0.50;96.30;;;;;;5026570;28;20131;-74
2022/12/02 02:48:03;;;;;;;58.10;22.98;;;0.60;96.40;;;;;;5029731;28;20048;-74
2022/12/02 02:50:30;;;;;;;61.58;21.08;;;0.50;96.40;;;;;;5029363;28;20045;-74
2022/12/02 02:52:56;;;;;;;58.55;22.20;;;0.50;96.50;;;;;;5017273;28;20104;-74
2022/12/02 02:55:25;;;;;;;66.05;22.85;;;0.50;96.50;;;;;;5022806;28;20075;-74
2022/12/02 02:57:51;;;;;;;62.10;22.75;;;0.60;96.60;;;;;;5029082;28;20052;-74
2022/12/02 03:00:19;;;;;;;61.70;22.05;;;0.60;96.70;;;;;;5020914;28;20103;-73
2022/12/02 03:02:50;;;;;;;61.20;21.75;;;0.50;96.70;;;;;;5032323;28;20018;-73
2022/12/02 03:05:16;;;;;;;67.07;23.98;;;0.60;96.70;;;;;;5033711;28;20084;-74
2022/12/02 03:07:42;;;;;;;68.13;24.60;;;0.60;96.80;;;;;;5032975;28;20033;-73
2022/12/02 03:10:08;;;;;;;68.43;25.00;;;0.60;96.90;;;;;;5027230;28;20038;-73
2022/12/02 03:12:34;;;;;;;62.35;23.15;;;0.60;96.90;;;;;;5031229;28;20477;-74
2022/12/02 03:15:01;;;;;;;73.35;26.30;;;0.60;96.90;;;;;;5026635;28;20041;-74
2022/12/02 03:17:27;;;;;;;76.90;25.20;;;0.60;97.00;;;;;;5025890;28;20295;-74
2022/12/02 03:19:52;;;;;;;72.88;25.17;;;0.60;97.00;;;;;;5026971;28;20092;-74
2022/12/02 03:22:18;;;;;;;64.68;24.38;;;0.60;97.00;;;;;;5028803;28;20057;-74
2022/12/02 03:24:44;;;;;;;83.72;27.70;;;0.60;97.10;;;;;;5027708;28;20072;-74
2022/12/02 03:27:09;;;;;;;78.50;26.10;;;0.50;97.00;;;;;;5020575;28;20434;-74
2022/12/02 03:29:36;;;;;;;86.65;27.08;;;0.50;97.10;;;;;;5027323;28;20075;-74
2022/12/02 03:32:02;;;;;;;80.45;27.30;;;0.50;97.20;;;;;;5025435;28;20037;-73
2022/12/02 03:34:28;;;;;;;80.63;27.23;;;0.50;97.30;;;;;;5029144;28;20083;-73
2022/12/02 03:36:56;;;;;;;80.10;26.10;;;0.50;97.20;;;;;;5021214;28;20045;-74
2022/12/02 03:39:21;;;;;;;79.30;26.02;;;0.50;97.30;;;;;;5027048;28;20032;-73
2022/12/02 03:41:47;;;;;;;82.80;26.80;;;0.50;97.30;;;;;;5027028;28;20369;-74
2022/12/02 03:44:14;;;;;;;83.55;27.90;;;0.50;97.30;;;;;;5017888;28;20395;-73
2022/12/02 03:46:41;;;;;;;82.32;28.38;;;0.50;97.30;;;;;;5028363;28;20026;-74
2022/12/02 03:49:07;;;;;;;78.22;26.80;;;0.50;97.40;;;;;;5032854;28;20148;-73
2022/12/02 03:51:32;;;;;;;83.85;27.63;;;0.60;97.40;;;;;;5023799;28;20582;-73
2022/12/02 03:54:00;;;;;;;86.03;27.15;;;0.60;97.40;;;;;;5021817;28;20042;-74
2022/12/02 03:56:26;;;;;;;79.10;26.00;;;0.60;97.30;;;;;;5017953;28;20035;-73
2022/12/02 03:58:52;;;;;;;78.55;27.25;;;0.60;97.40;;;;;;5027024;28;20021;-74
2022/12/02 04:01:20;;;;;;;85.43;26.35;;;0.60;97.40;;;;;;5018053;28;20132;-74
2022/12/02 04:03:45;;;;;;;92.38;29.27;;;0.60;97.30;;;;;;5028449;28;20039;-73
2022/12/02 04:06:12;;;;;;;76.55;27.20;;;0.60;97.40;;;;;;5018143;28;20025;-74
2022/12/02 04:08:37;;;;;;;81.57;26.77;;;0.60;97.30;;;;;;5029478;28;20017;-74
2022/12/02 04:11:03;;;;;;;76.40;27.52;;;0.60;97.20;;;;;;5025704;28;20048;-74
2022/12/02 04:13:29;;;;;;;79.13;27.45;;;0.60;97.20;;;;;;5029957;28;20107;-73
2022/12/02 04:15:54;;;;;;;81.30;26.92;;;0.60;97.20;;;;;;5030155;28;20108;-73
2022/12/02 04:18:20;;;;;;;72.88;26.40;;;0.60;97.20;;;;;;5022497;28;20326;-73
2022/12/02 04:20:45;;;;;;;83.47;27.80;;;0.70;97.30;;;;;;5022561;28;20040;-74
2022/12/02 04:23:11;;;;;;;79.00;27.55;;;0.70;97.20;;;;;;5027543;28;20128;-73
2022/12/02 04:25:36;;;;;;;75.63;28.77;;;0.70;97.20;;;;;;5029236;28;20036;-74
2022/12/02 04:28:02;;;;;;;76.25;26.73;;;0.70;97.10;;;;;;5028117;28;20029;-74
2022/12/02 04:30:27;;;;;;;73.68;27.10;;;0.70;97.20;;;;;;5019585;28;20490;-74
2022/12/02 04:32:53;;;;;;;68.07;26.25;;;0.70;97.10;;;;;;5027028;28;20049;-74
2022/12/02 04:35:18;;;;;;;78.35;28.10;;;0.70;97.00;;;;;;5022744;28;20029;-74
2022/12/02 04:37:44;;;;;;;72.70;28.42;;;0.70;97.00;;;;;;5026455;28;20032;-74
2022/12/02 04:40:10;;;;;;;69.88;27.52;;;0.70;96.90;;;;;;5020961;28;20120;-74
2022/12/02 04:42:35;;;;;;;74.35;28.42;;;0.60;96.80;;;;;;5024985;28;20399;-74
2022/12/02 04:45:01;;;;;;;76.65;27.55;;;0.70;96.80;;;;;;5026876;28;20021;-74
2022/12/02 04:47:27;;;;;;;72.50;25.25;;;0.70;96.90;;;;;;5026920;28;20037;-74
2022/12/02 04:49:52;;;;;;;67.57;27.45;;;0.70;96.80;;;;;;5036493;28;20103;-74
2022/12/02 04:52:18;;;;;;;68.40;27.58;;;0.70;96.80;;;;;;5019729;28;20032;-74
2022/12/02 04:54:43;;;;;;;62.65;25.83;;;0.60;96.70;;;;;;5023488;28;20040;-74
2022/12/02 04:57:09;;;;;;;67.15;26.00;;;0.70;96.80;;;;;;5024171;28;20096;-74
2022/12/02 04:59:34;;;;;;;66.53;27.08;;;0.70;96.90;;;;;;5026891;28;20059;-73
2022/12/02 05:02:00;;;;;;;60.40;26.38;;;0.70;96.80;;;;;;5025034;28;20438;-74
2022/12/02 05:04:25;;;;;;;65.45;27.42;;;0.70;96.80;;;;;;5020346;28;20041;-74
2022/12/02 05:06:50;;;;;;;68.30;28.10;;;0.70;96.70;;;;;;5031638;28;20025;-74
2022/12/02 05:09:16;;;;;;;62.22;25.55;;;0.70;96.70;;;;;;5021983;28;20021;-73
2022/12/02 05:11:41;;;;;;;68.88;27.30;;;0.70;96.70;;;;;;5024354;28;20087;-73
2022/12/02 05:14:07;;;;;;;64.78;26.50;;;0.70;96.80;;;;;;5015801;28;20330;-74
2022/12/02 05:16:32;;;;;;;69.47;28.55;;;0.70;96.80;;;;;;5025173;28;20138;-73
2022/12/02 05:18:58;;;;;;;64.30;26.70;;;0.70;96.80;;;;;;5022624;28;20477;-73
2022/12/02 05:21:23;;;;;;;62.17;26.10;;;0.70;96.80;;;;;;5015002;28;20374;-73
2022/12/02 05:23:49;;;;;;;63.58;25.33;;;0.70;96.80;;;;;;5021831;28;20054;-73
2022/12/02 05:26:14;;;;;;;62.53;25.98;;;0.60;96.80;;;;;;5016559;28;20025;-74
2022/12/02 05:28:40;;;;;;;68.35;28.10;;;0.70;96.80;;;;;;5022467;28;20100;-82
2022/12/02 05:31:05;;;;;;;60.65;27.45;;;0.70;97.00;;;;;;5019736;28;20119;-80
2022/12/02 05:33:31;;;;;;;71.78;26.92;;;0.70;96.90;;;;;;5017478;28;20025;-77
2022/12/02 05:35:59;;;;;;;64.57;26.88;;;0.70;96.90;;;;;;5027134;28;20573;-77
2022/12/02 05:38:25;;;;;;;56.13;26.10;;;0.70;96.90;;;;;;5016447;28;20041;-77
2022/12/02 05:40:54;;;;;;;59.33;27.40;;;0.70;96.90;;;;;;5027039;28;20048;-78
2022/12/02 05:43:22;;;;;;;60.10;26.63;;;0.70;96.90;;;;;;5023086;28;20042;-76
2022/12/02 05:45:48;;;;;;;59.33;27.27;;;0.70;96.90;;;;;;5040113;28;20055;-77
2022/12/02 05:48:16;;;;;;;61.17;27.08;;;0.70;96.90;;;;;;5036398;28;20473;-77
2022/12/02 05:50:43;;;;;;;69.63;28.70;;;0.70;96.80;;;;;;5030802;28;20046;-77
2022/12/02 05:53:24;;;;;;;63.40;26.52;;;0.70;96.90;;;;;;5015779;28;20030;-77
2022/12/02 05:55:52;;;;;;;59.10;26.67;;;0.70;97.00;;;;;;5019575;28;20040;-77
2022/12/02 05:58:18;;;;;;;64.82;27.10;;;0.70;96.90;;;;;;5015749;28;20101;-77
2022/12/02 06:00:54;;;;;;;60.35;25.80;;;0.70;96.90;;;;;;5016420;28;20349;-77
2022/12/02 06:03:20;;;;;;;68.80;27.25;;;0.70;96.90;;;;;;5020286;28;20159;-77
2022/12/02 06:05:47;;;;;;;63.03;27.98;;;0.80;97.00;;;;;;5017690;28;20442;-78
2022/12/02 06:08:31;;;;;;;61.17;26.75;;;0.70;96.90;;;;;;5014646;28;20552;-77
2022/12/02 06:11:00;;;;;;;61.85;27.50;;;0.70;97.00;;;;;;5027548;28;20120;-77
2022/12/02 06:13:28;;;;;;;62.95;28.58;;;0.80;97.10;;;;;;5018142;28;20047;-77
2022/12/02 06:15:54;;;;;;;67.88;27.48;;;0.70;97.10;;;;;;5028449;28;20052;-78
2022/12/02 06:18:22;;;;;;;59.08;25.92;;;0.70;97.00;;;;;;5026924;28;20028;-77
2022/12/02 06:20:55;;;;;;;67.85;28.85;;;0.80;97.10;;;;;;5030135;28;20025;-78
2022/12/02 06:23:21;;;;;;;62.53;26.48;;;0.70;97.10;;;;;;5025685;28;20121;-78
2022/12/02 06:25:50;;;;;;;69.10;27.15;;;0.70;97.10;;;;;;5026880;28;20056;-74
2022/12/02 06:28:28;;;;;;;64.50;28.95;;;0.70;97.20;;;;;;5026963;28;20417;-75
2022/12/02 06:30:57;;;;;;;65.97;27.08;;;0.80;97.20;;;;;;5021183;28;20029;-74
2022/12/02 06:33:30;;;;;;;63.45;28.58;;;0.80;97.30;;;;;;5026417;28;20116;-75
2022/12/02 06:35:58;;;;;;;70.32;28.10;;;0.80;97.20;;;;;;5027933;28;20065;-74
2022/12/02 06:38:37;;;;;;;68.82;27.02;;;0.80;97.30;;;;;;5030591;28;20111;-75
2022/12/02 06:41:18;;;;;;;65.47;26.85;;;0.80;97.20;;;;;;5029503;28;20144;-75
2022/12/02 06:45:03;;;;;;;63.45;26.63;;;0.70;97.30;;;;;;5022401;28;20378;-75
2022/12/02 06:46:29;;;;;;;67.20;27.05;;;0.70;97.10;;;;;;5024717;28;20108;-75
2022/12/02 06:48:56;;;;;;;60.75;26.88;;;0.70;97.20;;;;;;5028018;28;20022;-75
2022/12/02 06:51:21;;;;;;;68.55;27.80;;;0.70;97.30;;;;;;5020828;28;20354;-75
2022/12/02 06:53:47;;;;;;;64.68;27.33;;;0.80;97.30;;;;;;5023363;28;20021;-75
2022/12/02 06:56:15;;;;;;;65.53;27.60;;;0.70;97.30;;;;;;5024379;28;20791;-75
2022/12/02 06:58:54;;;;;;;69.65;29.02;;;0.80;97.30;;;;;;5023355;28;20029;-78
2022/12/02 07:01:33;;;;;;;61.17;27.73;;;0.80;97.40;;;;;;5024755;28;20890;-75
2022/12/02 07:04:07;;;;;;;63.35;28.73;;;0.80;97.30;;;;;;5024788;28;20022;-74
2022/12/02 07:06:38;;;;;;;57.30;26.98;;;0.80;97.30;;;;;;5020081;28;20116;-74
2022/12/02 07:09:37;;;;;;;63.33;25.30;;;0.80;97.50;;;;;;5022071;28;20026;-74
2022/12/02 07:12:09;;;;;;;61.00;27.75;;;0.70;97.20;;;;;;5024036;28;20100;-74
2022/12/02 07:14:47;;;;;;;64.13;26.80;;;0.80;97.50;;;;;;5018031;28;20048;-74
2022/12/02 07:17:18;;;;;;;69.30;29.17;;;0.80;97.40;;;;;;5029874;28;20038;-74
2022/12/02 07:19:47;;;;;;;66.97;28.42;;;0.80;97.50;;;;;;5019846;28;20042;-73
2022/12/02 07:22:16;;;;;;;68.40;28.65;;;0.80;97.40;;;;;;5021332;28;20092;-74
2022/12/02 07:24:48;;;;;;;59.70;27.50;;;0.80;97.30;;;;;;5019712;28;20028;-74
2022/12/02 07:27:24;;;;;;;59.42;26.52;;;0.80;97.40;;;;;;5026615;28;20048;-75
2022/12/02 07:29:50;;;;;;;64.25;27.15;;;0.80;97.40;;;;;;5026576;28;20117;-74
2022/12/02 07:32:16;;;;;;;63.35;27.52;;;0.80;97.40;;;;;;5018565;28;20034;-75
2022/12/02 07:34:41;;;;;;;60.58;28.33;;;0.80;97.40;;;;;;5028817;28;20017;-74
2022/12/02 07:37:07;;;;;;;60.05;25.63;;;0.80;97.40;;;;;;5013572;28;20300;-74
2022/12/02 07:39:32;;;;;;;61.08;26.45;;;0.80;97.20;;;;;;5026028;28;20041;-73
2022/12/02 07:41:57;;;;;;;58.90;25.50;;;0.80;97.30;;;;;;5021663;28;20041;-74
2022/12/02 07:44:23;;;;;;;58.55;25.92;;;0.80;97.40;;;;;;5014172;28;20621;-74
2022/12/02 07:46:48;;;;;;;61.25;25.40;;;0.80;97.40;;;;;;5017428;28;20029;-73
2022/12/02 07:49:14;;;;;;;56.42;27.00;;;0.80;97.30;;;;;;5020802;28;20029;-72
2022/12/02 07:51:39;;;;;;;60.83;27.00;;;0.90;97.30;;;;;;5027782;28;20037;-75
2022/12/02 07:54:05;;;;;;;52.15;25.13;;;0.80;97.40;;;;;;5021314;28;20434;-72
2022/12/02 07:56:30;;;;;;;58.55;25.73;;;0.80;97.20;;;;;;5020722;28;20113;-75
2022/12/02 07:58:56;;;;;;;56.40;25.40;;;0.80;97.20;;;;;;5016744;28;20105;-73
2022/12/02 08:01:21;;;;;;;59.80;25.50;;;0.80;97.20;;;;;;5024441;28;20449;-72
2022/12/02 08:03:47;;;;;;;54.25;24.73;;;0.80;97.20;;;;;;5023626;28;20041;-72
2022/12/02 08:06:12;;;;;;;53.47;25.42;;;0.80;97.10;;;;;;5022169;28;20029;-72
2022/12/02 08:08:38;;;;;;;60.92;27.00;;;0.90;97.10;;;;;;5022078;28;20029;-72
2022/12/02 08:11:03;;;;;;;61.63;25.67;;;0.90;97.10;;;;;;5021965;28;20033;-72
2022/12/02 08:13:29;;;;;;;57.17;25.15;;;0.90;97.10;;;;;;5025087;28;20037;-73
2022/12/02 08:15:54;;;;;;;56.40;26.33;;;0.90;97.10;;;;;;5021379;28;20032;-74
2022/12/02 08:18:20;;;;;;;51.60;25.20;;;1.00;97.10;;;;;;5023092;28;20033;-72
2022/12/02 08:20:45;;;;;;;59.70;26.23;;;1.00;97.10;;;;;;5016217;28;20491;-72
2022/12/02 08:23:10;;;;;;;58.50;25.48;;;1.00;97.10;;;;;;5020758;28;20176;-71
2022/12/02 08:25:36;;;;;;;54.55;25.33;;;1.00;97.10;;;;;;5029345;28;20454;-71
2022/12/02 08:28:01;;;;;;;59.08;27.35;;;1.00;97.10;;;;;;5026721;28;20060;-76
2022/12/02 08:30:27;;;;;;;56.67;26.45;;;1.10;97.00;;;;;;5018789;28;20107;-76
2022/12/02 08:32:52;;;;;;;59.38;26.50;;;1.10;97.00;;;;;;5025590;28;20094;-78
2022/12/02 08:35:18;;;;;;;54.78;25.63;;;1.00;96.90;;;;;;5027460;28;20032;-75
2022/12/02 08:37:43;;;;;;;58.88;25.67;;;1.10;97.00;;;;;;5026444;28;20382;-77
2022/12/02 08:40:09;;;;;;;47.50;22.83;;;1.10;96.80;;;;;;5021950;28;20037;-73
2022/12/02 08:42:35;;;;;;;57.95;24.73;;;1.10;96.80;;;;;;5025255;28;20442;-77
2022/12/02 08:45:00;;;;;;;51.60;23.75;;;1.10;96.70;;;;;;5025962;28;20017;-76
2022/12/02 08:47:26;;;;;;;58.10;25.00;;;1.10;96.80;;;;;;5021517;28;20083;-77
2022/12/02 08:49:51;;;;;;;55.03;25.08;;;1.10;96.70;;;;;;5022097;28;20013;-74
2022/12/02 08:52:17;;;;;;;59.20;25.20;;;1.20;96.70;;;;;;5014335;28;20045;-73
2022/12/02 08:54:44;;;;;;;59.58;24.13;;;1.20;96.60;;;;;;5026705;28;20369;-73
2022/12/02 08:57:10;;;;;;;58.42;24.95;;;1.20;96.60;;;;;;5025200;28;20057;-74
2022/12/02 08:59:35;;;;;;;54.00;24.70;;;1.30;96.60;;;;;;5018656;28;20453;-74
2022/12/02 09:02:01;;;;;;;56.85;25.33;;;1.30;96.40;;;;;;5020401;28;20029;-73
2022/12/02 09:04:26;;;;;;;58.03;26.00;;;1.20;96.30;;;;;;5021053;28;20031;-73
2022/12/02 09:06:52;;;;;;;56.75;24.70;;;1.30;96.30;;;;;;5021019;28;20132;-74
2022/12/02 09:09:17;;;;;;;59.65;25.58;;;1.30;96.30;;;;;;5033246;28;20033;-73
2022/12/02 09:11:43;;;;;;;57.28;25.20;;;1.30;96.30;;;;;;5025713;28;20463;-71
2022/12/02 09:14:08;;;;;;;56.08;24.58;;;1.30;96.30;;;;;;5016092;28;20030;-71
2022/12/02 09:16:34;;;;;;;59.05;26.02;;;1.40;96.40;;;;;;5025666;28;20041;-71
2022/12/02 09:18:59;;;;;;;54.88;24.90;;;1.40;96.40;;;;;;5030334;28;20350;-70
2022/12/02 09:21:25;;;;;;;62.17;25.95;;;1.40;96.20;;;;;;5031024;28;20065;-71
2022/12/02 09:23:50;;;;;;;58.25;25.40;;;1.40;96.20;;;;;;5025787;28;20300;-71
2022/12/02 09:26:16;;;;;;;56.45;23.83;;;1.30;96.20;;;;;;5028878;28;20021;-72
2022/12/02 09:28:41;;;;;;;61.65;26.15;;;1.40;96.20;;;;;;5019222;28;20132;-71
2022/12/02 09:31:07;;;;;;;58.75;26.55;;;1.40;96.20;;;;;;5029289;28;20038;-71
2022/12/02 09:33:32;;;;;;;57.28;24.50;;;1.30;96.10;;;;;;5030152;28;20094;-70
2022/12/02 09:35:58;;;;;;;58.63;26.30;;;1.40;96.00;;;;;;5028465;28;20414;-73
2022/12/02 09:38:23;;;;;;;60.25;25.42;;;1.40;96.00;;;;;;5017871;28;20056;-71
2022/12/02 09:40:49;;;;;;;61.45;25.05;;;1.50;95.80;;;;;;5019373;28;20033;-71
2022/12/02 09:43:14;;;;;;;53.90;23.08;;;1.50;95.70;;;;;;5023428;28;20077;-73
2022/12/02 09:45:40;;;;;;;59.65;25.63;;;1.50;95.60;;;;;;5029258;28;20026;-71
2022/12/02 09:48:07;;;;;;;68.55;26.30;;;1.50;95.50;;;;;;5023445;28;20104;-73
2022/12/02 09:50:33;;;;;;;58.80;25.00;;;1.50;95.40;;;;;;5026481;28;20060;-71
2022/12/02 09:53:06;;;;;;;45.22;22.98;;;1.50;95.40;;;;;;5027580;28;20112;-71
2022/12/02 09:55:32;;;;;;;55.13;23.80;;;1.50;95.50;;;;;;5019381;28;20025;-71
2022/12/02 09:58:10;;;;;;;61.70;25.20;;;1.40;95.40;;;;;;5023328;28;20440;-71
2022/12/02 10:00:36;;;;;;;52.65;24.02;;;1.50;95.50;;;;;;5024916;28;20043;-73
2022/12/02 10:03:04;;;;;;;58.47;23.92;;;1.60;95.60;;;;;;5029359;28;20100;-74
2022/12/02 10:05:31;;;;;;;53.95;22.88;;;1.40;95.20;;;;;;5026885;28;20480;-71
2022/12/02 10:07:59;;;;;;;55.25;22.80;;;1.50;95.10;;;;;;5025262;28;20126;-72
2022/12/02 10:10:34;;;;;;;52.63;23.15;;;1.40;94.80;;;;;;5021487;28;20053;-73
2022/12/02 10:13:01;;;;;;;50.17;23.02;;;1.50;94.90;;;;;;5024716;28;20156;-72
2022/12/02 10:15:28;;;;;;;49.70;22.98;;;1.50;95.00;;;;;;5021454;28;20045;-73
2022/12/02 10:17:54;;;;;;;52.38;22.98;;;1.50;95.00;;;;;;5025783;28;20107;-72
2022/12/02 10:20:24;;;;;;;50.92;23.30;;;1.50;95.10;;;;;;5013800;28;20026;-75
2022/12/02 10:23:14;;;;;;;50.05;22.80;;;1.60;95.10;;;;;;5016499;28;20449;-73
2022/12/02 10:25:48;;;;;;;48.35;22.55;;;1.60;95.00;;;;;;5027349;28;20118;-72
2022/12/02 10:28:28;;;;;;;51.25;22.58;;;1.70;95.00;;;;;;5017116;28;20124;-75
2022/12/02 10:31:03;;;;;;;52.80;23.52;;;1.70;95.00;;;;;;5021390;28;20378;-71
2022/12/02 10:33:32;;;;;;;46.35;23.83;;;1.70;95.00;;;;;;5024042;28;20322;-73
2022/12/02 10:35:59;;;;;;;54.75;23.83;;;1.70;94.80;;;;;;5021992;28;20044;-73
2022/12/02 10:38:29;;;;;;;51.22;24.00;;;1.80;94.90;;;;;;5018905;28;20307;-73
2022/12/02 10:41:13;;;;;;;56.13;23.35;;;1.80;94.90;;;;;;5022275;28;20037;-73
2022/12/02 10:43:43;;;;;;;54.65;23.38;;;1.80;94.80;;;;;;5019378;28;20047;-73
2022/12/02 10:46:15;;;;;;;54.88;23.58;;;1.80;94.80;;;;;;5020198;28;20021;-73
2022/12/02 10:48:41;;;;;;;52.42;22.80;;;1.60;94.30;;;;;;5028877;28;20033;-73
2022/12/02 10:51:13;;;;;;;54.45;24.05;;;1.60;94.80;;;;;;5031320;28;20045;-73
2022/12/02 10:53:39;;;;;;;56.17;24.25;;;1.70;94.90;;;;;;5020022;28;20026;-78
2022/12/02 10:56:06;;;;;;;53.40;24.08;;;1.70;94.90;;;;;;5026054;28;20033;-73
2022/12/02 10:58:31;;;;;;;48.92;22.50;;;1.80;94.80;;;;;;5018071;28;20057;-73
2022/12/02 11:00:58;;;;;;;53.55;25.10;;;1.80;94.60;;;;;;5023116;28;20383;-74
2022/12/02 11:03:24;;;;;;;54.92;23.55;;;1.90;94.60;;;;;;5016441;28;20046;-72
2022/12/02 11:05:51;;;;;;;49.22;22.90;;;2.00;94.60;;;;;;5019412;28;20110;-73
2022/12/02 11:08:22;;;;;;;51.33;25.10;;;2.10;94.60;;;;;;5021140;28;20096;-72
2022/12/02 11:10:50;;;;;;;51.83;24.35;;;2.10;94.50;;;;;;5020954;28;20141;-71
2022/12/02 11:13:29;;;;;;;47.15;21.75;;;2.00;93.90;;;;;;5016309;28;20049;-73
2022/12/02 11:15:55;;;;;;;53.83;22.52;;;2.00;94.10;;;;;;5028567;28;20364;-72
2022/12/02 11:18:29;;;;;;;48.47;22.83;;;1.90;94.00;;;;;;5031429;28;20111;-73
2022/12/02 11:21:35;;;;;;;43.33;22.58;;;1.90;94.10;;;;;;5021253;28;20036;-73
2022/12/02 11:24:22;;;;;;;51.88;22.15;;;1.90;94.20;;;;;;5014637;28;20037;-72
2022/12/02 11:27:01;;;;;;;48.20;22.00;;;1.80;94.10;;;;;;5025517;28;20332;-73
2022/12/02 11:29:41;;;;;;;51.28;22.88;;;1.80;94.30;;;;;;5024201;28;20123;-73
2022/12/02 11:32:16;;;;;;;52.10;23.05;;;1.90;94.50;;;;;;5027893;28;20105;-73
2022/12/02 11:34:41;;;;;;;56.35;22.75;;;2.00;94.70;;;;;;5030486;28;20029;-73
2022/12/02 11:37:35;;;;;;;44.42;21.80;;;1.90;94.60;;;;;;5025217;28;20025;-72
2022/12/02 11:40:14;;;;;;;49.17;23.13;;;1.90;94.50;;;;;;5021633;28;20057;-74
2022/12/02 11:42:42;;;;;;;51.95;23.52;;;1.90;94.50;;;;;;5023259;28;20306;-73
2022/12/02 11:45:16;;;;;;;54.25;23.45;;;2.00;94.70;;;;;;5017889;28;20485;-73
2022/12/02 11:47:43;;;;;;;58.15;25.95;;;1.90;94.60;;;;;;5025883;28;20461;-73
2022/12/02 11:50:18;;;;;;;51.17;24.08;;;1.90;94.50;;;;;;5022194;28;20109;-73
2022/12/02 11:52:52;;;;;;;51.13;23.88;;;1.90;94.70;;;;;;5024147;28;20050;-73
2022/12/02 11:55:21;;;;;;;52.28;23.65;;;1.90;94.60;;;;;;5022148;28;20048;-74
2022/12/02 11:57:53;;;;;;;56.88;24.20;;;1.90;94.50;;;;;;5020437;28;20110;-73
2022/12/02 12:00:24;;;;;;;49.00;24.35;;;1.90;94.70;;;;;;5019791;28;20457;-73
2022/12/02 12:03:16;;;;;;;52.40;23.67;;;1.90;94.60;;;;;;5022275;28;20095;-73
2022/12/02 12:06:08;;;;;;;56.45;23.95;;;1.90;94.60;;;;;;5027312;28;20041;-73
2022/12/02 12:08:35;;;;;;;52.92;24.45;;;2.00;94.60;;;;;;5022790;28;20360;-73
2022/12/02 12:11:19;;;;;;;46.80;22.33;;;2.00;94.40;;;;;;5020741;28;20025;-73
2022/12/02 12:14:01;;;;;;;50.78;24.05;;;2.00;94.40;;;;;;5017455;28;20106;-73
2022/12/02 12:16:31;;;;;;;52.53;24.27;;;2.10;94.50;;;;;;5019130;28;20418;-72
2022/12/02 12:18:58;;;;;;;55.13;24.60;;;2.10;94.50;;;;;;5019659;28;20055;-73
2022/12/02 12:21:30;;;;;;;52.00;23.73;;;2.10;94.40;;;;;;5024838;28;20375;-73
2022/12/02 12:24:19;;;;;;;55.22;23.92;;;2.10;94.10;;;;;;5022082;28;20106;-73
2022/12/02 12:26:49;;;;;;;51.45;23.52;;;2.00;93.60;;;;;;5017710;28;20398;-73
2022/12/02 12:29:16;;;;;;;43.97;20.92;;;2.00;93.90;;;;;;5025506;28;20025;-73
2022/12/02 12:31:42;;;;;;;48.75;22.65;;;2.00;93.90;;;;;;5018462;28;20040;-73
2022/12/02 12:34:08;;;;;;;49.88;23.02;;;2.10;94.10;;;;;;5019633;28;20109;-73
2022/12/02 12:36:34;;;;;;;46.85;21.77;;;2.10;94.10;;;;;;5024914;28;20030;-73
2022/12/02 12:39:01;;;;;;;48.80;22.08;;;2.10;93.80;;;;;;5026218;28;20048;-73
2022/12/02 12:41:26;;;;;;;51.17;22.92;;;2.00;93.80;;;;;;5028668;28;20066;-73
2022/12/02 12:43:52;;;;;;;49.45;22.38;;;1.90;93.70;;;;;;5022690;28;20100;-73